Time;durP1;ratioP1;P1;durP2;ratioP2;P2;SDS_P1;SDS_P2;PMS_P1;PMS_P2;Temp;Humidity;BMP_temperature;BMP_pressure;BME280_temperature;BME280_humidity;BME280_pressure;Samples;Min_cycle;Max_cycle;Signal;HPM_P1;HPM_P2
2023/03/04 00:01:17;;;;;;;;;56.00;49.00;;;;;;;;4976690;28;8869;-80
2023/03/04 00:03:44;;;;;;;;;52.50;47.75;;;;;;;;4977351;28;8882;-80
2023/03/04 00:06:11;;;;;;;;;46.00;43.00;;;;;;;;4980562;28;9020;-80
2023/03/04 00:08:39;;;;;;;;;53.25;48.25;;;;;;;;4973469;28;8854;-80
2023/03/04 00:11:07;;;;;;;;;61.00;51.25;;;;;;;;4980034;28;8849;-79
2023/03/04 00:13:34;;;;;;;;;61.25;51.75;;;;;;;;4978615;28;8834;-80
2023/03/04 00:16:04;;;;;;;;;53.75;47.25;;;;;;;;4979251;28;8865;-80
2023/03/04 00:18:31;;;;;;;;;52.50;46.75;;;;;;;;4976817;28;8885;-80
2023/03/04 00:20:58;;;;;;;;;61.00;53.25;;;;;;;;4983087;28;8887;-80
2023/03/04 00:23:26;;;;;;;;;56.00;47.25;;;;;;;;4979077;28;8871;-80
2023/03/04 00:25:54;;;;;;;;;56.75;50.75;;;;;;;;4973489;28;8980;-80
2023/03/04 00:28:22;;;;;;;;;44.50;38.25;;;;;;;;4979404;28;8869;-78
2023/03/04 00:30:49;;;;;;;;;54.00;48.50;;;;;;;;4974269;28;8877;-78
2023/03/04 00:33:18;;;;;;;;;68.25;57.25;;;;;;;;4976946;28;8868;-79
2023/03/04 00:35:46;;;;;;;;;62.50;53.50;;;;;;;;4973506;28;8863;-80
2023/03/04 00:38:14;;;;;;;;;64.50;55.25;;;;;;;;4975497;28;8858;-80
2023/03/04 00:40:42;;;;;;;;;45.00;43.50;;;;;;;;4975214;28;8888;-81
2023/03/04 00:43:09;;;;;;;;;60.75;51.75;;;;;;;;4974018;28;8872;-80
2023/03/04 00:45:36;;;;;;;;;59.25;51.00;;;;;;;;4973016;28;8865;-81
2023/03/04 00:48:04;;;;;;;;;54.50;46.00;;;;;;;;4975087;28;8850;-80
2023/03/04 00:50:33;;;;;;;;;59.00;50.33;;;;;;;;4975888;28;8992;-81
2023/03/04 00:53:01;;;;;;;;;67.50;55.00;;;;;;;;4975070;28;9000;-82
2023/03/04 00:55:28;;;;;;;;;56.25;48.75;;;;;;;;4973620;28;8920;-80
2023/03/04 00:57:55;;;;;;;;;44.25;43.00;;;;;;;;4974488;28;9019;-80
2023/03/04 01:00:23;;;;;;;;;48.00;45.25;;;;;;;;4980156;28;8858;-80
2023/03/04 01:02:51;;;;;;;;;49.75;45.75;;;;;;;;4981356;28;9004;-81
2023/03/04 01:05:18;;;;;;;;;50.50;47.25;;;;;;;;4980165;28;8875;-81
2023/03/04 01:07:47;;;;;;;;;54.25;47.75;;;;;;;;4976081;28;9014;-81
2023/03/04 01:10:16;;;;;;;;;62.25;52.75;;;;;;;;4981286;28;8893;-81
2023/03/04 01:12:43;;;;;;;;;55.75;46.25;;;;;;;;4980030;28;9003;-81
2023/03/04 01:15:13;;;;;;;;;54.50;44.75;;;;;;;;4980071;28;8830;-80
2023/03/04 01:17:40;;;;;;;;;50.50;45.00;;;;;;;;4979434;28;8888;-79
2023/03/04 01:20:12;;;;;;;;;52.25;47.00;;;;;;;;4976508;28;8872;-80
2023/03/04 01:22:39;;;;;;;;;57.25;49.00;;;;;;;;4978049;28;8857;-80
2023/03/04 01:25:10;;;;;;;;;36.75;36.75;;;;;;;;4977301;28;8873;-80
2023/03/04 01:27:37;;;;;;;;;49.50;45.00;;;;;;;;4981587;28;8861;-81
2023/03/04 01:30:06;;;;;;;;;45.75;43.75;;;;;;;;4973528;28;8868;-81
2023/03/04 01:32:33;;;;;;;;;55.50;49.25;;;;;;;;4979119;28;8861;-80
2023/03/04 01:35:00;;;;;;;;;55.50;47.50;;;;;;;;4970875;28;8865;-80
2023/03/04 01:37:29;;;;;;;;;41.00;39.00;;;;;;;;4972578;28;8858;-80
2023/03/04 01:39:57;;;;;;;;;69.25;54.25;;;;;;;;4973248;28;8988;-80
2023/03/04 01:42:27;;;;;;;;;62.50;50.75;;;;;;;;4971128;28;8845;-80
2023/03/04 01:44:55;;;;;;;;;51.75;47.75;;;;;;;;4975849;28;8869;-78
2023/03/04 01:47:24;;;;;;;;;54.50;49.00;;;;;;;;4976155;28;8985;-78
2023/03/04 01:49:54;;;;;;;;;58.50;49.50;;;;;;;;4973443;28;8869;-79
2023/03/04 01:52:22;;;;;;;;;61.00;48.25;;;;;;;;4976662;28;8857;-78
2023/03/04 01:54:50;;;;;;;;;51.00;47.75;;;;;;;;4971599;28;8881;-79
2023/03/04 01:57:19;;;;;;;;;66.00;53.50;;;;;;;;4974655;28;8980;-78
2023/03/04 01:59:48;;;;;;;;;57.75;48.75;;;;;;;;4978128;28;8881;-79
2023/03/04 02:02:15;;;;;;;;;68.25;56.50;;;;;;;;4975488;28;8865;-79
2023/03/04 02:04:43;;;;;;;;;59.00;50.25;;;;;;;;4978291;28;8877;-80
2023/03/04 02:07:11;;;;;;;;;62.25;50.25;;;;;;;;4976764;28;8889;-79
2023/03/04 02:09:38;;;;;;;;;61.75;51.50;;;;;;;;4977093;28;8990;-80
2023/03/04 02:12:05;;;;;;;;;63.50;50.25;;;;;;;;4980577;28;8889;-80
2023/03/04 02:14:33;;;;;;;;;61.25;51.50;;;;;;;;4974700;28;8877;-80
2023/03/04 02:17:02;;;;;;;;;45.75;38.00;;;;;;;;4977190;28;8886;-81
2023/03/04 02:19:39;;;;;;;;;67.00;51.25;;;;;;;;4982330;28;8848;-81
2023/03/04 02:22:07;;;;;;;;;67.75;52.25;;;;;;;;4976683;28;8873;-79
2023/03/04 02:24:38;;;;;;;;;70.75;53.75;;;;;;;;4972369;28;8859;-80
2023/03/04 02:27:08;;;;;;;;;62.25;48.00;;;;;;;;4975759;28;8984;-80
2023/03/04 02:29:35;;;;;;;;;57.75;49.50;;;;;;;;4978009;28;8989;-80
2023/03/04 02:32:03;;;;;;;;;64.50;51.25;;;;;;;;4979578;28;8888;-80
2023/03/04 02:34:33;;;;;;;;;68.75;54.75;;;;;;;;4975518;28;8854;-79
2023/03/04 02:37:02;;;;;;;;;65.25;55.25;;;;;;;;4978095;28;8887;-80
2023/03/04 02:39:33;;;;;;;;;72.50;53.25;;;;;;;;4972516;28;8857;-79
2023/03/04 02:42:03;;;;;;;;;73.25;51.75;;;;;;;;4974476;28;8992;-80
2023/03/04 02:44:33;;;;;;;;;60.25;49.75;;;;;;;;4968868;28;9677;-79
2023/03/04 02:47:04;;;;;;;;;68.00;56.25;;;;;;;;4977760;28;8853;-80
2023/03/04 02:49:32;;;;;;;;;70.00;52.00;;;;;;;;4974400;28;9004;-81
2023/03/04 02:52:02;;;;;;;;;63.50;52.25;;;;;;;;4977058;28;8862;-81
2023/03/04 02:54:30;;;;;;;;;50.00;43.75;;;;;;;;4976691;28;8984;-80
2023/03/04 02:56:59;;;;;;;;;60.67;50.33;;;;;;;;4979970;28;8861;-79
2023/03/04 02:59:27;;;;;;;;;61.50;51.00;;;;;;;;4980025;28;8857;-79
2023/03/04 03:01:56;;;;;;;;;68.50;58.50;;;;;;;;4975832;28;8856;-81
2023/03/04 03:04:24;;;;;;;;;69.00;54.50;;;;;;;;4978143;28;9016;-80
2023/03/04 03:06:52;;;;;;;;;68.00;56.00;;;;;;;;4981329;28;9646;-81
2023/03/04 03:09:20;;;;;;;;;68.25;58.25;;;;;;;;4976926;28;8869;-81
2023/03/04 03:11:47;;;;;;;;;69.75;57.25;;;;;;;;4973983;28;9657;-80
2023/03/04 03:14:15;;;;;;;;;67.50;50.00;;;;;;;;4979556;28;8881;-80
2023/03/04 03:16:43;;;;;;;;;65.50;55.50;;;;;;;;4987914;28;8901;-81
2023/03/04 03:19:12;;;;;;;;;67.25;54.00;;;;;;;;4985007;28;8883;-80
2023/03/04 03:21:40;;;;;;;;;62.75;49.75;;;;;;;;4989188;28;9588;-79
2023/03/04 03:24:07;;;;;;;;;62.25;53.00;;;;;;;;4986846;28;8862;-81
2023/03/04 03:26:35;;;;;;;;;61.75;49.00;;;;;;;;4983121;28;9003;-80
2023/03/04 03:29:07;;;;;;;;;59.25;49.75;;;;;;;;4977758;28;8879;-80
2023/03/04 03:31:35;;;;;;;;;52.00;47.75;;;;;;;;4978149;28;8996;-80
2023/03/04 03:34:02;;;;;;;;;62.25;52.50;;;;;;;;4982405;28;8999;-80
2023/03/04 03:36:31;;;;;;;;;50.25;46.50;;;;;;;;4978542;28;8875;-80
2023/03/04 03:38:58;;;;;;;;;54.50;45.75;;;;;;;;4980636;28;8961;-79
2023/03/04 03:41:25;;;;;;;;;48.50;45.00;;;;;;;;4981859;28;8861;-79
2023/03/04 03:43:53;;;;;;;;;52.25;47.50;;;;;;;;4981825;28;8890;-80
2023/03/04 03:46:20;;;;;;;;;58.75;49.00;;;;;;;;4977401;28;8879;-79
2023/03/04 03:48:48;;;;;;;;;40.25;39.00;;;;;;;;4976582;28;8848;-79
2023/03/04 03:51:15;;;;;;;;;59.50;51.75;;;;;;;;4976003;28;8866;-79
2023/03/04 03:53:44;;;;;;;;;54.75;46.50;;;;;;;;4976962;28;8989;-78
2023/03/04 03:56:12;;;;;;;;;50.50;46.00;;;;;;;;4975755;28;9000;-79
2023/03/04 03:58:39;;;;;;;;;44.00;42.50;;;;;;;;4966207;28;8869;-78
2023/03/04 04:01:08;;;;;;;;;54.25;45.50;;;;;;;;4970580;28;8867;-78
2023/03/04 04:03:35;;;;;;;;;54.50;46.00;;;;;;;;4976920;28;8869;-78
2023/03/04 04:06:02;;;;;;;;;60.00;48.75;;;;;;;;4977076;28;8861;-80
2023/03/04 04:08:30;;;;;;;;;46.50;44.25;;;;;;;;4973463;28;8865;-78
2023/03/04 04:10:59;;;;;;;;;57.75;49.50;;;;;;;;4979256;28;9639;-81
2023/03/04 04:13:26;;;;;;;;;64.75;53.75;;;;;;;;4977509;28;8994;-81
2023/03/04 04:15:54;;;;;;;;;61.50;51.75;;;;;;;;4978821;28;8858;-81
2023/03/04 04:18:22;;;;;;;;;43.00;40.75;;;;;;;;4979323;28;8846;-81
2023/03/04 04:20:50;;;;;;;;;55.25;48.50;;;;;;;;4981109;28;9718;-80
2023/03/04 04:23:17;;;;;;;;;48.75;44.50;;;;;;;;4987075;28;8848;-79
2023/03/04 04:25:45;;;;;;;;;47.50;43.00;;;;;;;;4991170;28;9004;-80
2023/03/04 04:28:14;;;;;;;;;59.00;50.25;;;;;;;;4986901;28;9018;-80
2023/03/04 04:30:42;;;;;;;;;57.50;48.25;;;;;;;;4993805;28;8972;-81
2023/03/04 04:33:12;;;;;;;;;52.50;46.50;;;;;;;;4991966;28;8966;-80
2023/03/04 04:35:40;;;;;;;;;62.50;49.75;;;;;;;;4988557;28;8943;-80
2023/03/04 04:38:07;;;;;;;;;48.50;45.25;;;;;;;;4983572;28;8869;-81
2023/03/04 04:40:35;;;;;;;;;49.75;46.75;;;;;;;;4988561;28;8861;-81
2023/03/04 04:43:03;;;;;;;;;52.50;47.00;;;;;;;;4995476;28;8858;-80
2023/03/04 04:45:32;;;;;;;;;46.00;43.50;;;;;;;;4989980;28;8984;-81
2023/03/04 04:48:00;;;;;;;;;57.50;49.75;;;;;;;;4982857;28;8868;-79
2023/03/04 04:50:28;;;;;;;;;52.75;44.75;;;;;;;;4981148;28;9714;-80
2023/03/04 04:52:55;;;;;;;;;49.25;44.00;;;;;;;;4976138;28;9011;-80
2023/03/04 04:55:24;;;;;;;;;50.00;42.75;;;;;;;;4982687;28;8860;-81
2023/03/04 04:57:52;;;;;;;;;50.25;43.25;;;;;;;;4979303;28;9028;-81
2023/03/04 05:00:20;;;;;;;;;62.00;50.25;;;;;;;;4982074;28;8861;-81
2023/03/04 05:02:49;;;;;;;;;47.25;44.25;;;;;;;;4982141;28;9028;-81
2023/03/04 05:05:17;;;;;;;;;51.00;44.75;;;;;;;;4980775;28;8928;-80
2023/03/04 05:07:45;;;;;;;;;53.00;48.00;;;;;;;;4980310;28;8873;-79
2023/03/04 05:10:12;;;;;;;;;48.00;42.00;;;;;;;;4981784;28;8830;-79
2023/03/04 05:12:40;;;;;;;;;50.00;42.75;;;;;;;;4984373;28;9020;-80
2023/03/04 05:15:09;;;;;;;;;47.00;42.00;;;;;;;;4984455;28;8962;-80
2023/03/04 05:17:36;;;;;;;;;39.50;37.50;;;;;;;;4974808;28;9096;-79
2023/03/04 05:20:06;;;;;;;;;51.50;45.25;;;;;;;;4978213;28;8857;-80
2023/03/04 05:22:33;;;;;;;;;49.50;43.75;;;;;;;;4986366;28;8825;-81
2023/03/04 05:25:01;;;;;;;;;48.75;42.00;;;;;;;;4992476;28;8853;-80
2023/03/04 05:27:28;;;;;;;;;51.75;45.00;;;;;;;;4964277;28;8879;-81
2023/03/04 05:30:00;;;;;;;;;50.00;45.25;;;;;;;;4983118;28;8869;-78
2023/03/04 05:32:28;;;;;;;;;43.25;42.25;;;;;;;;4976521;28;8868;-79
2023/03/04 05:34:55;;;;;;;;;48.75;45.00;;;;;;;;4977210;28;8981;-80
2023/03/04 05:37:25;;;;;;;;;42.50;39.00;;;;;;;;4979878;28;8887;-81
2023/03/04 05:39:53;;;;;;;;;46.50;43.75;;;;;;;;4976484;28;8911;-80
2023/03/04 05:42:20;;;;;;;;;41.75;41.25;;;;;;;;4978932;28;8892;-80
2023/03/04 05:44:48;;;;;;;;;45.00;43.00;;;;;;;;4977057;28;9666;-80
2023/03/04 05:47:15;;;;;;;;;55.25;49.25;;;;;;;;4982393;28;8885;-79
2023/03/04 05:49:43;;;;;;;;;58.25;50.75;;;;;;;;4979247;28;8978;-79
2023/03/04 05:52:11;;;;;;;;;54.50;48.75;;;;;;;;4979057;28;8919;-80
2023/03/04 05:54:40;;;;;;;;;57.25;49.00;;;;;;;;4985556;28;8983;-80
2023/03/04 05:57:13;;;;;;;;;66.75;55.00;;;;;;;;4987737;28;8865;-80
2023/03/04 05:59:40;;;;;;;;;70.00;57.75;;;;;;;;4988261;28;8862;-80
2023/03/04 06:02:07;;;;;;;;;74.00;62.25;;;;;;;;4989077;28;8878;-79
2023/03/04 06:04:36;;;;;;;;;79.50;61.50;;;;;;;;4985800;28;8883;-80
2023/03/04 06:07:03;;;;;;;;;69.75;56.75;;;;;;;;4979990;28;9021;-80
2023/03/04 06:09:31;;;;;;;;;68.75;57.50;;;;;;;;4982476;28;8881;-80
2023/03/04 06:12:00;;;;;;;;;56.50;50.00;;;;;;;;4979133;28;9000;-80
2023/03/04 06:14:27;;;;;;;;;69.00;57.00;;;;;;;;4974634;28;8872;-80
2023/03/04 06:16:55;;;;;;;;;78.75;60.00;;;;;;;;4972219;28;8826;-79
2023/03/04 06:19:23;;;;;;;;;75.00;62.00;;;;;;;;4982096;28;8881;-80
2023/03/04 06:21:50;;;;;;;;;85.25;67.25;;;;;;;;4981584;28;8883;-80
2023/03/04 06:24:18;;;;;;;;;107.50;84.75;;;;;;;;4984072;28;8861;-80
2023/03/04 06:26:49;;;;;;;;;93.00;72.50;;;;;;;;4989021;28;8913;-80
2023/03/04 06:29:18;;;;;;;;;98.50;77.75;;;;;;;;4988358;28;8873;-80
2023/03/04 06:31:47;;;;;;;;;89.25;68.25;;;;;;;;4990353;28;8943;-80
2023/03/04 06:34:14;;;;;;;;;96.25;72.50;;;;;;;;5007474;28;8887;-80
2023/03/04 06:36:42;;;;;;;;;109.00;87.00;;;;;;;;4990090;28;8852;-81
2023/03/04 06:39:11;;;;;;;;;103.00;88.50;;;;;;;;4987982;28;8869;-80
2023/03/04 06:41:38;;;;;;;;;97.25;73.50;;;;;;;;4985129;28;8878;-81
2023/03/04 06:44:06;;;;;;;;;88.50;67.75;;;;;;;;4977917;28;8895;-81
2023/03/04 06:46:36;;;;;;;;;87.00;64.75;;;;;;;;4983705;28;8872;-81
2023/03/04 06:49:03;;;;;;;;;69.75;57.00;;;;;;;;4972512;28;8892;-79
2023/03/04 06:51:39;;;;;;;;;81.50;61.50;;;;;;;;4974542;28;8867;-84
2023/03/04 06:54:18;;;;;;;;;90.50;69.50;;;;;;;;4986406;28;9674;-75
2023/03/04 06:56:46;;;;;;;;;73.50;58.25;;;;;;;;4973590;28;8938;-76
2023/03/04 06:59:13;;;;;;;;;84.75;68.50;;;;;;;;4966608;28;8871;-77
2023/03/04 07:01:42;;;;;;;;;92.00;70.00;;;;;;;;4966823;28;8857;-76
2023/03/04 07:04:10;;;;;;;;;77.00;61.75;;;;;;;;4972273;28;8991;-78
2023/03/04 07:06:37;;;;;;;;;93.00;68.25;;;;;;;;4972306;28;8866;-78
2023/03/04 07:09:05;;;;;;;;;82.50;64.50;;;;;;;;4970928;28;8908;-77
2023/03/04 07:11:32;;;;;;;;;87.00;71.00;;;;;;;;4974680;28;8864;-78
2023/03/04 07:13:59;;;;;;;;;95.50;75.50;;;;;;;;4958270;28;8820;-80
2023/03/04 07:16:27;;;;;;;;;86.00;66.25;;;;;;;;4974685;28;8877;-79
2023/03/04 07:18:56;;;;;;;;;82.00;65.50;;;;;;;;4973411;28;8979;-78
2023/03/04 07:21:24;;;;;;;;;85.75;67.25;;;;;;;;4976680;28;8884;-76
2023/03/04 07:23:52;;;;;;;;;82.75;66.50;;;;;;;;4978624;28;8863;-78
2023/03/04 07:26:19;;;;;;;;;66.67;54.33;;;;;;;;4971025;28;8884;-73
2023/03/04 07:28:47;;;;;;;;;60.00;50.33;;;;;;;;4967542;28;9623;-73
2023/03/04 07:31:22;;;;;;;;;63.67;48.33;;;;;;;;4971898;28;8876;-75
2023/03/04 07:33:50;;;;;;;;;53.33;46.33;;;;;;;;4970985;28;8895;-73
2023/03/04 07:36:19;;;;;;;;;62.33;48.33;;;;;;;;4970088;28;8880;-74
2023/03/04 07:38:49;;;;;;;;;55.00;44.67;;;;;;;;4970010;28;8909;-74
2023/03/04 07:41:17;;;;;;;;;76.25;61.50;;;;;;;;4971098;28;8858;-75
2023/03/04 07:43:45;;;;;;;;;90.25;72.00;;;;;;;;4972702;28;8845;-78
2023/03/04 07:46:13;;;;;;;;;82.50;64.00;;;;;;;;4974982;28;8890;-77
2023/03/04 07:48:40;;;;;;;;;94.50;70.25;;;;;;;;4968775;28;8849;-78
2023/03/04 07:51:10;;;;;;;;;85.75;69.00;;;;;;;;4976713;28;8881;-76
2023/03/04 07:53:43;;;;;;;;;92.50;71.25;;;;;;;;4978398;28;9012;-78
2023/03/04 07:56:13;;;;;;;;;84.50;67.75;;;;;;;;4976223;28;8856;-74
2023/03/04 07:58:41;;;;;;;;;90.75;69.50;;;;;;;;4973845;28;8899;-73
2023/03/04 08:01:12;;;;;;;;;79.75;65.00;;;;;;;;4973576;28;8927;-73
2023/03/04 08:03:40;;;;;;;;;87.75;69.00;;;;;;;;4979376;28;8846;-73
2023/03/04 08:06:08;;;;;;;;;81.75;67.50;;;;;;;;4976121;28;8865;-74
2023/03/04 08:08:36;;;;;;;;;84.00;64.25;;;;;;;;4976079;28;8861;-73
2023/03/04 08:11:07;;;;;;;;;92.75;73.25;;;;;;;;4977791;28;8900;-76
2023/03/04 08:13:34;;;;;;;;;99.50;80.25;;;;;;;;4978744;28;8857;-76
2023/03/04 08:16:02;;;;;;;;;88.00;68.75;;;;;;;;4972078;28;8895;-74
2023/03/04 08:18:30;;;;;;;;;78.50;61.50;;;;;;;;4974077;28;8850;-76
2023/03/04 08:20:57;;;;;;;;;96.25;76.00;;;;;;;;4976361;28;8906;-78
2023/03/04 08:23:25;;;;;;;;;89.25;69.50;;;;;;;;4979013;28;8939;-76
2023/03/04 08:25:52;;;;;;;;;87.25;66.75;;;;;;;;4974178;28;8869;-75
2023/03/04 08:28:22;;;;;;;;;94.00;70.25;;;;;;;;4972968;28;8861;-74
2023/03/04 08:30:55;;;;;;;;;91.50;68.25;;;;;;;;4974825;28;8876;-75
2023/03/04 08:33:22;;;;;;;;;94.50;68.75;;;;;;;;4978281;28;8853;-75
2023/03/04 08:35:53;;;;;;;;;98.25;82.00;;;;;;;;4978595;28;8901;-74
2023/03/04 08:38:22;;;;;;;;;100.75;90.75;;;;;;;;4975842;28;8935;-74
2023/03/04 08:40:53;;;;;;;;;103.50;92.25;;;;;;;;4983249;28;8868;-76
2023/03/04 08:43:25;;;;;;;;;91.50;73.50;;;;;;;;4976863;28;8973;-75
2023/03/04 08:45:53;;;;;;;;;96.50;79.00;;;;;;;;4978122;28;8857;-73
2023/03/04 08:48:24;;;;;;;;;91.75;76.50;;;;;;;;4977981;28;8816;-77
2023/03/04 08:50:52;;;;;;;;;95.25;76.50;;;;;;;;4985222;28;8975;-77
2023/03/04 08:53:26;;;;;;;;;89.25;69.25;;;;;;;;4977958;28;8858;-77
2023/03/04 08:56:00;;;;;;;;;36.33;36.33;;;;;;;;4980509;28;9655;-79
2023/03/04 08:58:29;;;;;;;;;39.00;31.67;;;;;;;;4978855;28;8849;-76
2023/03/04 09:00:59;;;;;;;;;35.33;27.67;;;;;;;;4981151;28;8873;-76
2023/03/04 09:03:27;;;;;;;;;28.67;22.00;;;;;;;;4974921;28;11608;-75
2023/03/04 09:05:58;;;;;;;;;48.00;36.00;;;;;;;;4975190;28;12461;-75
2023/03/04 09:08:25;;;;;;;;;92.00;70.33;;;;;;;;4976767;28;8871;-75
2023/03/04 09:10:54;;;;;;;;;88.00;71.33;;;;;;;;4980542;28;8853;-76
2023/03/04 09:13:22;;;;;;;;;82.67;65.67;;;;;;;;4980434;28;8846;-76
2023/03/04 09:15:55;;;;;;;;;80.33;64.67;;;;;;;;4980266;28;8964;-76
2023/03/04 09:18:27;;;;;;;;;49.33;41.33;;;;;;;;4981690;28;8992;-76
2023/03/04 09:21:01;;;;;;;;;34.33;34.33;;;;;;;;4985984;28;9321;-76
2023/03/04 09:23:28;;;;;;;;;42.67;34.33;;;;;;;;4978137;28;11626;-76
2023/03/04 09:25:55;;;;;;;;;58.67;48.67;;;;;;;;4977298;28;12404;-76
2023/03/04 09:28:22;;;;;;;;;74.33;60.33;;;;;;;;4981439;28;8874;-76
2023/03/04 09:30:54;;;;;;;;;84.67;65.00;;;;;;;;4975091;28;8854;-77
2023/03/04 09:33:21;;;;;;;;;87.33;72.00;;;;;;;;4980908;28;8988;-76
2023/03/04 09:35:49;;;;;;;;;90.33;72.00;;;;;;;;4977567;28;8980;-76
2023/03/04 09:38:17;;;;;;;;;89.00;71.33;;;;;;;;4983104;28;8999;-75
2023/03/04 09:40:48;;;;;;;;;87.00;66.33;;;;;;;;4978300;28;8877;-77
2023/03/04 09:43:20;;;;;;;;;84.00;65.00;;;;;;;;4975823;28;8853;-76
2023/03/04 09:45:53;;;;;;;;;86.00;65.67;;;;;;;;4973547;28;8842;-76
2023/03/04 09:48:24;;;;;;;;;85.00;66.67;;;;;;;;4969301;28;8853;-76
2023/03/04 09:51:02;;;;;;;;;82.67;64.00;;;;;;;;4974395;28;9387;-76
2023/03/04 09:53:40;;;;;;;;;78.67;61.00;;;;;;;;4974725;28;8862;-76
2023/03/04 09:56:09;;;;;;;;;74.33;58.33;;;;;;;;4972435;28;8945;-77
2023/03/04 10:02:34;;;;;;;;;;;;;;;;;;;;;
2023/03/04 10:05:30;;;;;;;;;66.00;55.00;;;;;;;;4979908;28;8861;-77
2023/03/04 10:08:23;;;;;;;;;60.75;45.50;;;;;;;;4966349;28;8865;-75
2023/03/04 10:10:52;;;;;;;;;37.25;34.50;;;;;;;;4976415;28;11641;-75
2023/03/04 10:13:26;;;;;;;;;33.50;32.00;;;;;;;;4972326;28;11712;-77
2023/03/04 10:15:54;;;;;;;;;36.75;36.00;;;;;;;;4981146;28;11636;-76
2023/03/04 10:18:32;;;;;;;;;36.00;31.25;;;;;;;;4974955;28;11634;-75
2023/03/04 10:21:02;;;;;;;;;43.75;36.75;;;;;;;;4980474;28;11771;-76
2023/03/04 10:23:32;;;;;;;;;38.00;33.25;;;;;;;;5000264;28;11644;-76
2023/03/04 10:26:00;;;;;;;;;46.00;40.00;;;;;;;;4978070;28;11640;-76
2023/03/04 10:28:38;;;;;;;;;67.67;53.00;;;;;;;;4980814;28;11821;-76
2023/03/04 10:31:19;;;;;;;;;73.33;53.00;;;;;;;;4982611;28;11711;-76
2023/03/04 10:33:48;;;;;;;;;65.25;50.25;;;;;;;;4979479;28;11652;-76
2023/03/04 10:36:40;;;;;;;;;55.75;46.00;;;;;;;;4973707;28;11643;-76
2023/03/04 10:39:25;;;;;;;;;44.75;38.75;;;;;;;;4973957;28;12505;-76
2023/03/04 10:42:01;;;;;;;;;47.50;37.75;;;;;;;;4979273;28;11750;-75
2023/03/04 10:44:29;;;;;;;;;60.50;48.50;;;;;;;;4980689;28;11633;-75
2023/03/04 10:46:57;;;;;;;;;41.50;37.25;;;;;;;;4977600;28;11640;-77
2023/03/04 10:49:30;;;;;;;;;58.25;46.50;;;;;;;;4969052;28;11755;-75
2023/03/04 10:52:14;;;;;;;;;18.00;16.50;;;;;;;;4979894;28;11636;-76
2023/03/04 10:54:43;;;;;;;;;41.25;33.00;;;;;;;;4981416;28;11609;-76
2023/03/04 10:57:16;;;;;;;;;46.00;36.25;;;;;;;;4976586;28;11677;-76
2023/03/04 10:59:49;;;;;;;;;49.00;40.50;;;;;;;;4974811;28;11653;-76
2023/03/04 11:02:30;;;;;;;;;48.00;40.00;;;;;;;;4979502;28;11741;-75
2023/03/04 11:05:11;;;;;;;;;43.75;37.50;;;;;;;;4977976;28;11635;-75
2023/03/04 11:07:43;;;;;;;;;26.50;26.50;;;;;;;;4977410;28;11680;-75
2023/03/04 11:10:15;;;;;;;;;44.25;37.75;;;;;;;;4979918;28;11635;-76
2023/03/04 11:12:50;;;;;;;;;38.75;32.50;;;;;;;;4978403;28;12381;-75
2023/03/04 11:15:23;;;;;;;;;32.00;29.25;;;;;;;;4977195;28;11640;-76
2023/03/04 11:17:54;;;;;;;;;53.00;43.00;;;;;;;;4975660;28;12513;-75
2023/03/04 11:20:31;;;;;;;;;58.25;43.75;;;;;;;;4977560;28;11618;-76
2023/03/04 11:23:04;;;;;;;;;46.00;38.75;;;;;;;;4981678;28;13022;-76
2023/03/04 11:25:34;;;;;;;;;48.75;42.50;;;;;;;;4975167;28;11637;-77
2023/03/04 11:28:17;;;;;;;;;33.00;31.00;;;;;;;;4982956;28;11628;-75
2023/03/04 11:30:52;;;;;;;;;29.75;26.00;;;;;;;;4977839;28;11644;-83
2023/03/04 11:33:28;;;;;;;;;26.50;25.00;;;;;;;;4981401;28;11627;-77
2023/03/04 11:36:12;;;;;;;;;27.75;25.75;;;;;;;;4981981;28;11605;-74
2023/03/04 11:38:42;;;;;;;;;37.00;33.00;;;;;;;;4978146;28;11599;-78
2023/03/04 11:41:13;;;;;;;;;24.75;20.75;;;;;;;;4977400;28;11655;-75
2023/03/04 11:43:43;;;;;;;;;22.50;21.25;;;;;;;;4978920;28;12422;-75
2023/03/04 11:46:44;;;;;;;;;23.00;23.00;;;;;;;;4975934;28;11610;-75
2023/03/04 11:50:01;;;;;;;;;27.75;25.00;;;;;;;;4983912;28;11615;-81
2023/03/04 11:53:07;;;;;;;;;24.75;20.50;;;;;;;;4963730;28;11662;-80
2023/03/04 11:55:41;;;;;;;;;30.50;28.75;;;;;;;;4954681;28;11624;-78
2023/03/04 11:58:32;;;;;;;;;37.75;30.25;;;;;;;;4958232;28;11677;-77
2023/03/04 12:01:08;;;;;;;;;20.25;18.75;;;;;;;;4958569;28;11788;-79
2023/03/04 12:03:56;;;;;;;;;25.75;24.25;;;;;;;;4938788;28;11655;-74
2023/03/04 12:06:33;;;;;;;;;25.25;21.25;;;;;;;;4959567;28;11634;-75
2023/03/04 12:09:26;;;;;;;;;29.50;26.00;;;;;;;;4964051;28;11678;-80
2023/03/04 12:12:02;;;;;;;;;32.75;23.75;;;;;;;;4947951;28;11659;-77
2023/03/04 12:14:34;;;;;;;;;26.50;26.50;;;;;;;;4960519;28;11677;-76
2023/03/04 12:17:39;;;;;;;;;28.50;26.25;;;;;;;;4960158;28;11664;-76
2023/03/04 12:20:38;;;;;;;;;33.75;30.25;;;;;;;;4937310;28;11751;-78
2023/03/04 12:23:17;;;;;;;;;28.25;24.50;;;;;;;;4954662;28;11754;-76
2023/03/04 12:25:53;;;;;;;;;33.50;30.50;;;;;;;;4963158;28;11675;-75
2023/03/04 12:28:39;;;;;;;;;33.00;32.50;;;;;;;;4979625;28;11723;-75
2023/03/04 12:31:37;;;;;;;;;37.50;32.00;;;;;;;;4989236;28;12222;-75
2023/03/04 12:34:43;;;;;;;;;26.00;26.00;;;;;;;;4975746;28;11622;-75
2023/03/04 12:37:24;;;;;;;;;33.25;30.50;;;;;;;;4978323;28;11693;-75
2023/03/04 12:40:06;;;;;;;;;41.00;35.50;;;;;;;;4976546;28;11753;-74
2023/03/04 12:42:53;;;;;;;;;15.25;15.25;;;;;;;;4974672;28;11712;-77
2023/03/04 12:45:25;;;;;;;;;12.50;12.50;;;;;;;;4991694;28;11752;-76
2023/03/04 12:51:00;;;;;;;;;21.50;19.50;;;;;;;;4976172;28;11629;-73
2023/03/04 12:53:33;;;;;;;;;28.00;25.00;;;;;;;;4980942;28;11630;-75
2023/03/04 12:56:05;;;;;;;;;18.75;15.25;;;;;;;;4977256;28;11776;-74
2023/03/04 12:58:36;;;;;;;;;16.75;16.00;;;;;;;;4977277;28;12551;-73
2023/03/04 13:01:11;;;;;;;;;9.00;9.00;;;;;;;;4976470;28;11620;-73
2023/03/04 13:03:44;;;;;;;;;18.00;15.75;;;;;;;;4974661;28;11596;-75
2023/03/04 13:06:24;;;;;;;;;8.00;8.00;;;;;;;;4977104;28;11743;-74
2023/03/04 13:09:01;;;;;;;;;8.00;3.75;;;;;;;;4979419;28;11500;-74
2023/03/04 13:11:53;;;;;;;;;17.00;14.00;;;;;;;;4984413;28;11495;-73
2023/03/04 13:14:28;;;;;;;;;7.00;7.00;;;;;;;;4983043;28;11628;-75
2023/03/04 13:17:02;;;;;;;;;9.75;6.50;;;;;;;;4982910;28;11626;-77
2023/03/04 13:20:14;;;;;;;;;13.75;7.00;;;;;;;;4978611;28;11519;-75
2023/03/04 13:22:48;;;;;;;;;14.50;13.00;;;;;;;;4961260;28;11478;-76
2023/03/04 13:25:42;;;;;;;;;17.50;14.50;;;;;;;;4977645;28;11603;-74
2023/03/04 13:28:24;;;;;;;;;8.25;8.25;;;;;;;;4975062;28;11629;-74
2023/03/04 13:31:25;;;;;;;;;11.50;11.25;;;;;;;;4973388;28;11555;-74
2023/03/04 13:34:00;;;;;;;;;7.00;7.00;;;;;;;;4958242;28;11665;-74
2023/03/04 13:36:58;;;;;;;;;6.00;6.00;;;;;;;;4976031;28;11593;-73
2023/03/04 13:39:36;;;;;;;;;9.00;7.25;;;;;;;;4960518;28;11541;-74
2023/03/04 13:42:42;;;;;;;;;9.75;9.00;;;;;;;;4972213;28;11538;-73
2023/03/04 13:45:35;;;;;;;;;8.50;8.00;;;;;;;;4975476;28;11727;-73
2023/03/04 13:48:04;;;;;;;;;7.75;7.75;;;;;;;;4927082;28;12403;-72
2023/03/04 13:50:41;;;;;;;;;12.50;12.50;;;;;;;;4971919;28;11546;-76
2023/03/04 13:53:31;;;;;;;;;11.00;8.50;;;;;;;;4978534;28;11726;-74
2023/03/04 13:56:23;;;;;;;;;7.50;7.00;;;;;;;;4975253;28;11615;-78
2023/03/04 13:59:04;;;;;;;;;8.75;8.75;;;;;;;;4974270;28;11580;-74
2023/03/04 14:01:35;;;;;;;;;9.50;9.50;;;;;;;;4974259;28;11500;-74
2023/03/04 14:04:11;;;;;;;;;7.50;7.50;;;;;;;;4975649;28;11647;-73
2023/03/04 14:06:43;;;;;;;;;7.00;7.00;;;;;;;;4972569;28;12702;-74
2023/03/04 14:09:15;;;;;;;;;9.00;9.00;;;;;;;;4975626;28;11464;-74
2023/03/04 14:11:45;;;;;;;;;8.00;8.00;;;;;;;;4980222;28;11763;-73
2023/03/04 14:14:17;;;;;;;;;9.00;9.00;;;;;;;;4974782;28;11607;-76
2023/03/04 14:16:49;;;;;;;;;8.00;8.00;;;;;;;;4976314;28;11491;-75
2023/03/04 14:19:20;;;;;;;;;8.00;8.00;;;;;;;;4972452;28;11498;-74
2023/03/04 14:21:48;;;;;;;;;10.75;6.75;;;;;;;;4975735;28;11510;-74
2023/03/04 14:24:18;;;;;;;;;6.50;6.50;;;;;;;;4970264;28;11508;-75
2023/03/04 14:26:46;;;;;;;;;19.75;19.00;;;;;;;;4972464;28;11672;-74
2023/03/04 14:29:28;;;;;;;;;7.75;7.75;;;;;;;;4975728;28;11615;-75
2023/03/04 14:31:56;;;;;;;;;4.00;4.00;;;;;;;;4972740;28;11490;-75
2023/03/04 14:34:26;;;;;;;;;4.00;4.00;;;;;;;;4970673;28;11701;-74
2023/03/04 14:36:54;;;;;;;;;4.75;3.25;;;;;;;;4974780;28;11638;-74
2023/03/04 14:39:24;;;;;;;;;5.75;5.75;;;;;;;;4971513;28;11500;-74
2023/03/04 14:41:53;;;;;;;;;9.25;6.50;;;;;;;;4974080;28;11575;-74
2023/03/04 14:44:28;;;;;;;;;5.25;5.25;;;;;;;;4974622;28;11515;-74
2023/03/04 14:46:59;;;;;;;;;10.50;8.50;;;;;;;;4969382;28;11493;-75
2023/03/04 14:49:27;;;;;;;;;4.00;4.00;;;;;;;;4976836;28;11607;-74
2023/03/04 14:51:56;;;;;;;;;7.50;7.00;;;;;;;;4971400;28;11510;-74
2023/03/04 14:54:29;;;;;;;;;7.00;7.00;;;;;;;;4974353;28;11499;-73
2023/03/04 14:56:57;;;;;;;;;6.00;5.75;;;;;;;;4975201;28;11547;-74
2023/03/04 14:59:35;;;;;;;;;8.00;8.00;;;;;;;;4969051;28;11631;-73
2023/03/04 15:02:29;;;;;;;;;12.00;12.00;;;;;;;;4975480;28;11542;-73